sensor_id;sensor_type;location;lat;lon;timestamp;pressure;altitude;pressure_sealevel;temperature;humidity
45888;BME280;31595;51.418;7.572;2023-02-14T00:01:18;102169.69;;;3.80;69.26
45888;BME280;31595;51.418;7.572;2023-02-14T00:03:46;102170.78;;;3.79;68.13
45888;BME280;31595;51.418;7.572;2023-02-14T00:06:16;102162.47;;;3.60;69.35
45888;BME280;31595;51.418;7.572;2023-02-14T00:08:43;102173.47;;;3.60;69.31
45888;BME280;31595;51.418;7.572;2023-02-14T00:11:11;102178.09;;;3.66;68.83
45888;BME280;31595;51.418;7.572;2023-02-14T00:13:39;102169.81;;;3.66;69.16
45888;BME280;31595;51.418;7.572;2023-02-14T00:16:27;102170.03;;;3.65;68.46
45888;BME280;31595;51.418;7.572;2023-02-14T00:18:57;102166.66;;;3.63;68.46
45888;BME280;31595;51.418;7.572;2023-02-14T00:21:30;102167.97;;;3.60;69.34
45888;BME280;31595;51.418;7.572;2023-02-14T00:24:00;102172.88;;;3.58;68.12
45888;BME280;31595;51.418;7.572;2023-02-14T00:26:28;102172.88;;;3.58;68.61
45888;BME280;31595;51.418;7.572;2023-02-14T00:28:55;102171.63;;;3.54;68.88
45888;BME280;31595;51.418;7.572;2023-02-14T00:31:22;102174.38;;;3.54;68.92
45888;BME280;31595;51.418;7.572;2023-02-14T00:33:51;102162.53;;;3.54;68.59
45888;BME280;31595;51.418;7.572;2023-02-14T00:36:18;102174.84;;;3.51;67.61
45888;BME280;31595;51.418;7.572;2023-02-14T00:38:46;102168.72;;;3.49;68.00
45888;BME280;31595;51.418;7.572;2023-02-14T00:41:13;102174.22;;;3.49;68.94
45888;BME280;31595;51.418;7.572;2023-02-14T00:43:44;102173.63;;;3.47;68.63
45888;BME280;31595;51.418;7.572;2023-02-14T00:46:15;102177.41;;;3.46;67.85
45888;BME280;31595;51.418;7.572;2023-02-14T00:48:42;102183.19;;;3.44;67.55
45888;BME280;31595;51.418;7.572;2023-02-14T00:51:12;102173.28;;;3.37;67.52
45888;BME280;31595;51.418;7.572;2023-02-14T00:53:40;102177.94;;;3.36;67.65
45888;BME280;31595;51.418;7.572;2023-02-14T00:56:11;102180.91;;;3.35;67.46
45888;BME280;31595;51.418;7.572;2023-02-14T00:58:38;102177.97;;;3.30;68.12
45888;BME280;31595;51.418;7.572;2023-02-14T01:01:06;102182.69;;;3.22;67.90
45888;BME280;31595;51.418;7.572;2023-02-14T01:03:34;102187.59;;;3.20;67.78
45888;BME280;31595;51.418;7.572;2023-02-14T01:06:02;102185.28;;;3.17;68.17
45888;BME280;31595;51.418;7.572;2023-02-14T01:08:33;102190.34;;;3.20;68.93
45888;BME280;31595;51.418;7.572;2023-02-14T01:11:06;102190.13;;;3.22;68.81
45888;BME280;31595;51.418;7.572;2023-02-14T01:13:37;102187.41;;;3.15;68.15
45888;BME280;31595;51.418;7.572;2023-02-14T01:16:06;102187.41;;;3.15;67.94
45888;BME280;31595;51.418;7.572;2023-02-14T01:18:34;102185.94;;;3.13;68.35
45888;BME280;31595;51.418;7.572;2023-02-14T01:21:14;102183.41;;;3.11;68.96
45888;BME280;31595;51.418;7.572;2023-02-14T01:23:44;102186.19;;;3.11;68.49
45888;BME280;31595;51.418;7.572;2023-02-14T01:26:12;102182.81;;;3.09;67.87
45888;BME280;31595;51.418;7.572;2023-02-14T01:28:40;102185.56;;;3.09;67.50
45888;BME280;31595;51.418;7.572;2023-02-14T01:31:09;102184.09;;;3.00;67.67
45888;BME280;31595;51.418;7.572;2023-02-14T01:33:37;102184.97;;;3.00;68.41
45888;BME280;31595;51.418;7.572;2023-02-14T01:36:06;102189.44;;;2.95;67.64
45888;BME280;31595;51.418;7.572;2023-02-14T01:38:33;102180.31;;;3.01;67.62
45888;BME280;31595;51.418;7.572;2023-02-14T01:41:02;102176.47;;;3.02;67.59
45888;BME280;31595;51.418;7.572;2023-02-14T01:43:29;102170.97;;;3.02;68.35
45888;BME280;31595;51.418;7.572;2023-02-14T01:45:56;102182.66;;;2.97;68.93
45888;BME280;31595;51.418;7.572;2023-02-14T01:48:24;102176.09;;;2.98;68.16
45888;BME280;31595;51.418;7.572;2023-02-14T01:50:52;102171.44;;;2.99;68.84
45888;BME280;31595;51.418;7.572;2023-02-14T01:53:23;102180.75;;;2.98;68.82
45888;BME280;31595;51.418;7.572;2023-02-14T01:55:57;102177.78;;;2.99;68.14
45888;BME280;31595;51.418;7.572;2023-02-14T01:58:33;102176.53;;;2.95;68.72
45888;BME280;31595;51.418;7.572;2023-02-14T02:01:03;102172.09;;;2.94;68.97
45888;BME280;31595;51.418;7.572;2023-02-14T02:03:33;102170.84;;;2.90;68.91
45888;BME280;31595;51.418;7.572;2023-02-14T02:06:07;102170.84;;;2.90;67.64
45888;BME280;31595;51.418;7.572;2023-02-14T02:08:40;102167.66;;;2.93;68.93
45888;BME280;31595;51.418;7.572;2023-02-14T02:11:08;102162.59;;;2.90;67.93
45888;BME280;31595;51.418;7.572;2023-02-14T02:13:37;102157.94;;;2.91;68.54
45888;BME280;31595;51.418;7.572;2023-02-14T02:16:20;102161.09;;;2.88;68.75
45888;BME280;31595;51.418;7.572;2023-02-14T02:18:59;102163.03;;;2.87;68.62
45888;BME280;31595;51.418;7.572;2023-02-14T02:21:49;102159.22;;;2.88;68.09
45888;BME280;31595;51.418;7.572;2023-02-14T02:24:30;102160.06;;;2.89;67.25
45888;BME280;31595;51.418;7.572;2023-02-14T02:27:33;102158.19;;;2.82;67.74
45888;BME280;31595;51.418;7.572;2023-02-14T02:30:36;102157.34;;;2.82;67.37
45888;BME280;31595;51.418;7.572;2023-02-14T02:39:28;102144.91;;;2.73;68.02
45888;BME280;31595;51.418;7.572;2023-02-14T02:42:03;102145.78;;;2.73;68.75
45888;BME280;31595;51.418;7.572;2023-02-14T02:44:41;102138.13;;;2.75;68.65
45888;BME280;31595;51.418;7.572;2023-02-14T02:47:18;102140.47;;;2.72;68.54
45888;BME280;31595;51.418;7.572;2023-02-14T02:49:54;102134.75;;;2.73;68.17
45888;BME280;31595;51.418;7.572;2023-02-14T02:52:43;102140.28;;;2.73;68.37
45888;BME280;31595;51.418;7.572;2023-02-14T02:55:39;102141.97;;;2.68;68.11
45888;BME280;31595;51.418;7.572;2023-02-14T02:58:29;102140.53;;;2.65;68.17
45888;BME280;31595;51.418;7.572;2023-02-14T03:00:58;102141.97;;;2.68;68.62
45888;BME280;31595;51.418;7.572;2023-02-14T03:03:29;102145.63;;;2.61;69.09
45888;BME280;31595;51.418;7.572;2023-02-14T03:06:16;102142.03;;;2.61;69.14
45888;BME280;31595;51.418;7.572;2023-02-14T03:08:43;102146.66;;;2.67;68.55
45888;BME280;31595;51.418;7.572;2023-02-14T03:11:14;102143.91;;;2.67;67.97
45888;BME280;31595;51.418;7.572;2023-02-14T03:13:54;102143.91;;;2.67;68.50
45888;BME280;31595;51.418;7.572;2023-02-14T03:16:32;102132.28;;;2.65;67.30
45888;BME280;31595;51.418;7.572;2023-02-14T03:19:25;102127.03;;;2.57;68.21
45888;BME280;31595;51.418;7.572;2023-02-14T03:21:59;102130.00;;;2.55;67.83
45888;BME280;31595;51.418;7.572;2023-02-14T03:24:30;102134.66;;;2.55;67.85
45888;BME280;31595;51.418;7.572;2023-02-14T03:27:14;102127.84;;;2.57;67.46
45888;BME280;31595;51.418;7.572;2023-02-14T03:29:52;102134.03;;;2.53;67.92
45888;BME280;31595;51.418;7.572;2023-02-14T03:32:28;102127.28;;;2.49;67.99
45888;BME280;31595;51.418;7.572;2023-02-14T03:35:06;102128.56;;;2.46;68.17
45888;BME280;31595;51.418;7.572;2023-02-14T03:37:38;102127.28;;;2.49;68.50
45888;BME280;31595;51.418;7.572;2023-02-14T03:40:09;102133.19;;;2.52;67.68
45888;BME280;31595;51.418;7.572;2023-02-14T03:42:42;102129.19;;;2.48;68.07
45888;BME280;31595;51.418;7.572;2023-02-14T03:45:17;102125.16;;;2.51;67.43
45888;BME280;31595;51.418;7.572;2023-02-14T03:47:46;102120.06;;;2.48;67.21
45888;BME280;31595;51.418;7.572;2023-02-14T03:50:17;102120.31;;;2.46;68.11
45888;BME280;31595;51.418;7.572;2023-02-14T03:52:46;102131.53;;;2.44;68.38
45888;BME280;31595;51.418;7.572;2023-02-14T03:55:19;102126.03;;;2.44;68.48
45888;BME280;31595;51.418;7.572;2023-02-14T03:57:54;102130.44;;;2.46;67.79
45888;BME280;31595;51.418;7.572;2023-02-14T04:00:22;102115.44;;;2.41;67.35
45888;BME280;31595;51.418;7.572;2023-02-14T04:02:54;102121.41;;;2.38;68.26
45888;BME280;31595;51.418;7.572;2023-02-14T04:05:26;102118.66;;;2.38;67.68
45888;BME280;31595;51.418;7.572;2023-02-14T04:07:55;102118.44;;;2.40;67.98
45888;BME280;31595;51.418;7.572;2023-02-14T04:10:23;102115.72;;;2.33;68.33
45888;BME280;31595;51.418;7.572;2023-02-14T04:12:52;102111.06;;;2.34;68.74
45888;BME280;31595;51.418;7.572;2023-02-14T04:15:19;102106.22;;;2.29;68.49
45888;BME280;31595;51.418;7.572;2023-02-14T04:17:47;102104.50;;;2.35;67.78
45888;BME280;31595;51.418;7.572;2023-02-14T04:20:31;102103.88;;;2.33;68.23
45888;BME280;31595;51.418;7.572;2023-02-14T04:22:59;102107.47;;;2.33;67.98
45888;BME280;31595;51.418;7.572;2023-02-14T04:25:27;102113.59;;;2.35;68.49
45888;BME280;31595;51.418;7.572;2023-02-14T04:27:56;102118.44;;;2.40;67.98
45888;BME280;31595;51.418;7.572;2023-02-14T04:30:23;102109.38;;;2.33;68.47
45888;BME280;31595;51.418;7.572;2023-02-14T04:32:50;102116.34;;;2.35;68.50
45888;BME280;31595;51.418;7.572;2023-02-14T04:35:17;102108.09;;;2.35;68.66
45888;BME280;31595;51.418;7.572;2023-02-14T04:37:45;102109.78;;;2.36;68.31
45888;BME280;31595;51.418;7.572;2023-02-14T04:40:12;102107.03;;;2.36;68.75
45888;BME280;31595;51.418;7.572;2023-02-14T04:42:42;102109.78;;;2.36;68.62
45888;BME280;31595;51.418;7.572;2023-02-14T04:45:11;102099.84;;;2.35;67.98
45888;BME280;31595;51.418;7.572;2023-02-14T04:47:38;102096.03;;;2.36;68.58
45888;BME280;31595;51.418;7.572;2023-02-14T04:50:06;102099.84;;;2.35;68.88
45888;BME280;31595;51.418;7.572;2023-02-14T04:52:34;102095.41;;;2.34;68.35
45888;BME280;31595;51.418;7.572;2023-02-14T04:55:01;102090.97;;;2.33;69.28
45888;BME280;31595;51.418;7.572;2023-02-14T04:57:29;102090.56;;;2.30;68.63
45888;BME280;31595;51.418;7.572;2023-02-14T04:59:56;102081.91;;;2.26;68.80
45888;BME280;31595;51.418;7.572;2023-02-14T05:02:25;102077.47;;;2.25;68.88
45888;BME280;31595;51.418;7.572;2023-02-14T05:04:52;102074.53;;;2.20;68.54
45888;BME280;31595;51.418;7.572;2023-02-14T05:07:19;102076.84;;;2.23;68.15
45888;BME280;31595;51.418;7.572;2023-02-14T05:09:46;102078.97;;;2.21;68.35
45888;BME280;31595;51.418;7.572;2023-02-14T05:12:14;102074.53;;;2.20;68.39
45888;BME280;31595;51.418;7.572;2023-02-14T05:14:42;102068.66;;;2.16;69.07
45888;BME280;31595;51.418;7.572;2023-02-14T05:17:09;102068.81;;;2.21;69.08
45888;BME280;31595;51.418;7.572;2023-02-14T05:19:38;102063.13;;;2.23;68.83
45888;BME280;31595;51.418;7.572;2023-02-14T05:22:05;102066.53;;;2.12;68.97
45888;BME280;31595;51.418;7.572;2023-02-14T05:24:32;102065.28;;;2.14;68.71
45888;BME280;31595;51.418;7.572;2023-02-14T05:26:59;102054.69;;;2.11;68.76
45888;BME280;31595;51.418;7.572;2023-02-14T05:29:27;102053.88;;;2.11;68.94
45888;BME280;31595;51.418;7.572;2023-02-14T05:31:54;102058.13;;;2.07;68.71
45888;BME280;31595;51.418;7.572;2023-02-14T05:34:21;102054.91;;;2.10;67.75
45888;BME280;31595;51.418;7.572;2023-02-14T05:36:50;102056.66;;;2.04;67.66
45888;BME280;31595;51.418;7.572;2023-02-14T05:39:18;102061.94;;;1.99;68.20
45888;BME280;31595;51.418;7.572;2023-02-14T05:41:45;102053.69;;;1.99;67.66
45888;BME280;31595;51.418;7.572;2023-02-14T05:44:13;102056.25;;;2.00;68.05
45888;BME280;31595;51.418;7.572;2023-02-14T05:46:40;102059.81;;;2.01;68.63
45888;BME280;31595;51.418;7.572;2023-02-14T05:49:07;102062.34;;;2.02;68.02
45888;BME280;31595;51.418;7.572;2023-02-14T05:51:34;102051.78;;;1.99;68.28
45888;BME280;31595;51.418;7.572;2023-02-14T05:54:03;102060.66;;;2.01;67.82
45888;BME280;31595;51.418;7.572;2023-02-14T05:56:30;102060.69;;;1.95;67.15
45888;BME280;31595;51.418;7.572;2023-02-14T05:58:57;102066.84;;;1.90;67.80
45888;BME280;31595;51.418;7.572;2023-02-14T06:01:25;102060.94;;;1.93;67.57
45888;BME280;31595;51.418;7.572;2023-02-14T06:03:52;102061.81;;;1.87;67.54
45888;BME280;31595;51.418;7.572;2023-02-14T06:06:19;102058.59;;;1.90;67.68
45888;BME280;31595;51.418;7.572;2023-02-14T06:08:46;102059.25;;;1.86;67.21
45888;BME280;31595;51.418;7.572;2023-02-14T06:11:15;102061.59;;;1.82;67.36
45888;BME280;31595;51.418;7.572;2023-02-14T06:13:42;102061.63;;;1.75;67.84
45888;BME280;31595;51.418;7.572;2023-02-14T06:16:09;102062.03;;;1.79;68.11
45888;BME280;31595;51.418;7.572;2023-02-14T06:18:37;102063.28;;;1.76;67.81
45888;BME280;31595;51.418;7.572;2023-02-14T06:21:04;102067.56;;;1.72;67.79
45888;BME280;31595;51.418;7.572;2023-02-14T06:23:31;102076.00;;;1.71;68.35
45888;BME280;31595;51.418;7.572;2023-02-14T06:25:59;102066.28;;;1.75;67.69
45888;BME280;31595;51.418;7.572;2023-02-14T06:28:27;102074.72;;;1.73;67.73
45888;BME280;31595;51.418;7.572;2023-02-14T06:30:54;102078.09;;;1.75;67.70
45888;BME280;31595;51.418;7.572;2023-02-14T06:33:22;102085.28;;;1.83;67.94
45888;BME280;31595;51.418;7.572;2023-02-14T06:35:49;102086.13;;;1.77;67.87
45888;BME280;31595;51.418;7.572;2023-02-14T06:38:16;102086.53;;;1.80;67.45
45888;BME280;31595;51.418;7.572;2023-02-14T06:40:43;102077.25;;;1.81;67.66
45888;BME280;31595;51.418;7.572;2023-02-14T06:43:11;102083.59;;;1.75;68.30
45888;BME280;31595;51.418;7.572;2023-02-14T06:45:40;102082.53;;;1.83;67.33
45888;BME280;31595;51.418;7.572;2023-02-14T06:48:08;102076.03;;;1.64;67.87
45888;BME280;31595;51.418;7.572;2023-02-14T06:50:35;102079.78;;;1.70;67.53
45888;BME280;31595;51.418;7.572;2023-02-14T06:53:03;102082.31;;;1.78;67.95
45888;BME280;31595;51.418;7.572;2023-02-14T06:55:31;102087.59;;;1.79;67.71
45888;BME280;31595;51.418;7.572;2023-02-14T06:57:58;102088.22;;;1.81;67.95
45888;BME280;31595;51.418;7.572;2023-02-14T07:00:25;102092.25;;;1.79;67.92
45888;BME280;31595;51.418;7.572;2023-02-14T07:02:54;102090.53;;;1.85;68.21
45888;BME280;31595;51.418;7.572;2023-02-14T07:05:21;102082.28;;;1.91;68.54
45888;BME280;31595;51.418;7.572;2023-02-14T07:07:48;102087.13;;;1.96;68.30
45888;BME280;31595;51.418;7.572;2023-02-14T07:10:16;102086.88;;;2.04;67.80
45888;BME280;31595;51.418;7.572;2023-02-14T07:12:43;102096.72;;;2.63;67.00
45888;BME280;31595;51.418;7.572;2023-02-14T07:15:12;102094.44;;;3.11;66.84
45888;BME280;31595;51.418;7.572;2023-02-14T07:17:39;102095.34;;;3.30;64.79
45888;BME280;31595;51.418;7.572;2023-02-14T07:20:09;102089.81;;;3.55;64.92
45888;BME280;31595;51.418;7.572;2023-02-14T07:22:36;102095.75;;;4.74;62.85
45888;BME280;31595;51.418;7.572;2023-02-14T07:25:05;102090.34;;;6.33;59.63
45888;BME280;31595;51.418;7.572;2023-02-14T07:27:33;102085.03;;;7.56;55.54
45888;BME280;31595;51.418;7.572;2023-02-14T07:30:02;102079.88;;;9.07;53.37
45888;BME280;31595;51.418;7.572;2023-02-14T07:32:32;102075.25;;;10.08;49.98
45888;BME280;31595;51.418;7.572;2023-02-14T07:35:01;102075.47;;;10.80;46.82
45888;BME280;31595;51.418;7.572;2023-02-14T07:37:33;102077.16;;;11.17;45.17
45888;BME280;31595;51.418;7.572;2023-02-14T07:40:02;102075.16;;;10.61;43.96
45888;BME280;31595;51.418;7.572;2023-02-14T07:42:30;102069.50;;;9.72;45.60
45888;BME280;31595;51.418;7.572;2023-02-14T07:44:59;102069.97;;;8.57;49.39
45888;BME280;31595;51.418;7.572;2023-02-14T07:47:27;102072.34;;;9.88;46.45
45888;BME280;31595;51.418;7.572;2023-02-14T07:49:55;102069.94;;;11.01;44.45
45888;BME280;31595;51.418;7.572;2023-02-14T07:52:25;102064.81;;;12.50;42.06
45888;BME280;31595;51.418;7.572;2023-02-14T07:54:54;102066.50;;;11.70;43.51
45888;BME280;31595;51.418;7.572;2023-02-14T07:57:22;102069.81;;;11.98;42.84
45888;BME280;31595;51.418;7.572;2023-02-14T07:59:52;102061.13;;;13.63;39.94
45888;BME280;31595;51.418;7.572;2023-02-14T08:02:20;102059.31;;;14.82;37.53
45888;BME280;31595;51.418;7.572;2023-02-14T08:04:48;102059.84;;;14.84;37.13
45888;BME280;31595;51.418;7.572;2023-02-14T08:07:17;102053.22;;;14.37;36.37
45888;BME280;31595;51.418;7.572;2023-02-14T08:09:45;102053.41;;;14.84;35.89
45888;BME280;31595;51.418;7.572;2023-02-14T08:12:15;102047.03;;;16.04;34.94
45888;BME280;31595;51.418;7.572;2023-02-14T08:15:00;102039.56;;;17.62;32.49
45888;BME280;31595;51.418;7.572;2023-02-14T08:17:43;102055.50;;;17.67;32.40
45888;BME280;31595;51.418;7.572;2023-02-14T08:20:12;102049.63;;;17.23;33.60
45888;BME280;31595;51.418;7.572;2023-02-14T08:22:40;102048.84;;;19.21;31.18
45888;BME280;31595;51.418;7.572;2023-02-14T08:25:08;102045.28;;;20.78;28.79
45888;BME280;31595;51.418;7.572;2023-02-14T08:27:37;102044.56;;;21.81;27.11
45888;BME280;31595;51.418;7.572;2023-02-14T08:30:05;102047.31;;;22.80;26.00
45888;BME280;31595;51.418;7.572;2023-02-14T08:32:33;102037.44;;;23.62;25.07
45888;BME280;31595;51.418;7.572;2023-02-14T08:35:00;102039.19;;;24.30;24.33
45888;BME280;31595;51.418;7.572;2023-02-14T08:37:27;102033.19;;;24.70;23.15
45888;BME280;31595;51.418;7.572;2023-02-14T08:39:55;102037.06;;;25.40;22.74
45888;BME280;31595;51.418;7.572;2023-02-14T08:42:23;102040.22;;;26.01;22.13
45888;BME280;31595;51.418;7.572;2023-02-14T08:44:52;102036.38;;;26.73;21.51
45888;BME280;31595;51.418;7.572;2023-02-14T08:47:19;102034.22;;;27.27;20.60
45888;BME280;31595;51.418;7.572;2023-02-14T08:49:46;102029.66;;;27.63;20.44
45888;BME280;31595;51.418;7.572;2023-02-14T08:52:13;102031.25;;;28.57;19.13
45888;BME280;31595;51.418;7.572;2023-02-14T08:54:40;102036.81;;;28.36;19.54
45888;BME280;31595;51.418;7.572;2023-02-14T08:57:08;102030.34;;;29.41;18.39
45888;BME280;31595;51.418;7.572;2023-02-14T08:59:35;102029.97;;;29.71;18.90
45888;BME280;31595;51.418;7.572;2023-02-14T09:02:04;102033.28;;;29.87;19.18
45888;BME280;31595;51.418;7.572;2023-02-14T09:04:33;102029.56;;;30.12;18.33
45888;BME280;31595;51.418;7.572;2023-02-14T09:07:00;102025.78;;;30.58;18.70
45888;BME280;31595;51.418;7.572;2023-02-14T09:09:30;102019.97;;;30.76;18.58
45888;BME280;31595;51.418;7.572;2023-02-14T09:11:57;102021.66;;;31.51;17.52
45888;BME280;31595;51.418;7.572;2023-02-14T09:14:24;102017.06;;;32.13;16.92
45888;BME280;31595;51.418;7.572;2023-02-14T09:16:52;102025.50;;;32.69;16.47
45888;BME280;31595;51.418;7.572;2023-02-14T09:19:20;102018.00;;;33.06;16.20
45888;BME280;31595;51.418;7.572;2023-02-14T09:21:47;102015.28;;;33.26;16.31
45888;BME280;31595;51.418;7.572;2023-02-14T09:24:15;102022.34;;;33.75;15.50
45888;BME280;31595;51.418;7.572;2023-02-14T09:26:42;102013.56;;;34.06;15.76
45888;BME280;31595;51.418;7.572;2023-02-14T09:29:09;102016.88;;;34.28;15.42
45888;BME280;31595;51.418;7.572;2023-02-14T09:31:38;102004.91;;;34.70;15.52
45888;BME280;31595;51.418;7.572;2023-02-14T09:34:05;102004.94;;;35.06;15.34
45888;BME280;31595;51.418;7.572;2023-02-14T09:36:51;102003.66;;;35.44;14.88
45888;BME280;31595;51.418;7.572;2023-02-14T09:39:18;101996.09;;;36.12;14.75
45888;BME280;31595;51.418;7.572;2023-02-14T09:42:09;101987.28;;;36.61;13.23
45888;BME280;31595;51.418;7.572;2023-02-14T09:44:42;101983.69;;;37.25;13.41
45888;BME280;31595;51.418;7.572;2023-02-14T09:47:19;101989.25;;;37.70;13.37
45888;BME280;31595;51.418;7.572;2023-02-14T09:49:52;101984.31;;;38.06;13.06
45888;BME280;31595;51.418;7.572;2023-02-14T09:52:29;101985.81;;;38.76;12.67
45888;BME280;31595;51.418;7.572;2023-02-14T09:54:59;101971.56;;;38.78;12.93
45888;BME280;31595;51.418;7.572;2023-02-14T09:57:35;101973.69;;;39.41;12.35
45888;BME280;31595;51.418;7.572;2023-02-14T10:00:15;101975.53;;;39.66;12.42
45888;BME280;31595;51.418;7.572;2023-02-14T10:02:53;101968.47;;;40.04;12.28
45888;BME280;31595;51.418;7.572;2023-02-14T10:05:25;101965.88;;;40.15;12.37
45888;BME280;31595;51.418;7.572;2023-02-14T10:07:59;101968.44;;;40.68;11.74
45888;BME280;31595;51.418;7.572;2023-02-14T10:10:35;101960.66;;;40.56;12.01
45888;BME280;31595;51.418;7.572;2023-02-14T10:13:07;101969.31;;;41.02;11.39
45888;BME280;31595;51.418;7.572;2023-02-14T10:15:41;101972.94;;;41.64;11.43
45888;BME280;31595;51.418;7.572;2023-02-14T10:18:12;101965.19;;;41.99;10.81
45888;BME280;31595;51.418;7.572;2023-02-14T10:20:43;101961.34;;;42.32;10.75
45888;BME280;31595;51.418;7.572;2023-02-14T10:23:23;101949.78;;;42.68;10.47
45888;BME280;31595;51.418;7.572;2023-02-14T10:25:56;101958.72;;;43.09;10.62
45888;BME280;31595;51.418;7.572;2023-02-14T10:28:30;101946.69;;;43.77;9.90
45888;BME280;31595;51.418;7.572;2023-02-14T10:31:10;101946.44;;;44.22;9.91
45888;BME280;31595;51.418;7.572;2023-02-14T10:33:44;101951.16;;;44.40;9.65
45888;BME280;31595;51.418;7.572;2023-02-14T10:36:25;101943.19;;;44.98;9.63
45888;BME280;31595;51.418;7.572;2023-02-14T10:39:04;101945.88;;;45.40;9.28
45888;BME280;31595;51.418;7.572;2023-02-14T10:41:42;101935.63;;;45.72;8.70
45888;BME280;31595;51.418;7.572;2023-02-14T10:44:28;101936.44;;;45.84;8.88
45888;BME280;31595;51.418;7.572;2023-02-14T10:47:01;101933.63;;;46.12;8.55
45888;BME280;31595;51.418;7.572;2023-02-14T10:49:38;101938.81;;;46.46;8.17
45888;BME280;31595;51.418;7.572;2023-02-14T10:52:14;101936.38;;;46.61;8.32
45888;BME280;31595;51.418;7.572;2023-02-14T10:54:50;101928.03;;;47.10;7.96
45888;BME280;31595;51.418;7.572;2023-02-14T10:57:22;101929.56;;;47.56;8.16
45888;BME280;31595;51.418;7.572;2023-02-14T10:59:54;101930.31;;;47.74;7.91
45888;BME280;31595;51.418;7.572;2023-02-14T11:02:26;101931.94;;;48.22;7.47
45888;BME280;31595;51.418;7.572;2023-02-14T11:04:57;101925.91;;;47.97;7.88
45888;BME280;31595;51.418;7.572;2023-02-14T11:07:25;101929.19;;;48.66;7.37
45888;BME280;31595;51.418;7.572;2023-02-14T11:09:54;101913.16;;;48.86;7.49
45888;BME280;31595;51.418;7.572;2023-02-14T11:12:32;101917.22;;;49.13;7.11
45888;BME280;31595;51.418;7.572;2023-02-14T11:15:14;101915.97;;;49.27;7.11
45888;BME280;31595;51.418;7.572;2023-02-14T11:17:45;101915.16;;;49.51;7.24
45888;BME280;31595;51.418;7.572;2023-02-14T11:20:24;101909.00;;;50.25;6.64
45888;BME280;31595;51.418;7.572;2023-02-14T11:22:52;101899.63;;;50.21;6.82
45888;BME280;31595;51.418;7.572;2023-02-14T11:25:25;101895.19;;;50.92;6.38
45888;BME280;31595;51.418;7.572;2023-02-14T11:27:57;101892.13;;;50.98;6.52
45888;BME280;31595;51.418;7.572;2023-02-14T11:30:29;101885.94;;;50.96;6.23
45888;BME280;31595;51.418;7.572;2023-02-14T11:32:57;101880.94;;;50.91;6.09
45888;BME280;31595;51.418;7.572;2023-02-14T11:35:26;101881.75;;;50.59;6.00
45888;BME280;31595;51.418;7.572;2023-02-14T11:37:59;101882.78;;;51.34;5.36
45888;BME280;31595;51.418;7.572;2023-02-14T11:40:30;101872.63;;;51.16;5.47
45888;BME280;31595;51.418;7.572;2023-02-14T11:42:59;101861.59;;;50.58;6.10
45888;BME280;31595;51.418;7.572;2023-02-14T11:45:30;101854.56;;;50.42;6.17
45888;BME280;31595;51.418;7.572;2023-02-14T11:48:17;101855.88;;;50.73;5.79
45888;BME280;31595;51.418;7.572;2023-02-14T11:50:53;101847.59;;;50.98;5.67
45888;BME280;31595;51.418;7.572;2023-02-14T11:53:23;101846.44;;;51.01;5.95
45888;BME280;31595;51.418;7.572;2023-02-14T11:55:54;101840.94;;;51.59;5.57
45888;BME280;31595;51.418;7.572;2023-02-14T11:58:30;101837.44;;;51.20;5.64
45888;BME280;31595;51.418;7.572;2023-02-14T12:00:58;101835.03;;;51.05;5.52
45888;BME280;31595;51.418;7.572;2023-02-14T12:03:27;101837.75;;;49.99;5.93
45888;BME280;31595;51.418;7.572;2023-02-14T12:05:55;101830.13;;;50.35;5.46
45888;BME280;31595;51.418;7.572;2023-02-14T12:08:28;101824.03;;;49.95;5.69
45888;BME280;31595;51.418;7.572;2023-02-14T12:11:02;101823.09;;;49.87;5.69
45888;BME280;31595;51.418;7.572;2023-02-14T12:13:31;101824.94;;;50.42;5.72
45888;BME280;31595;51.418;7.572;2023-02-14T12:15:58;101821.19;;;50.09;5.82
45888;BME280;31595;51.418;7.572;2023-02-14T12:18:36;101814.91;;;50.58;5.60
45888;BME280;31595;51.418;7.572;2023-02-14T12:21:17;101814.78;;;51.44;5.52
45888;BME280;31595;51.418;7.572;2023-02-14T12:23:58;101811.41;;;50.27;6.09
45888;BME280;31595;51.418;7.572;2023-02-14T12:26:34;101814.91;;;50.58;5.66
45888;BME280;31595;51.418;7.572;2023-02-14T12:29:08;101806.00;;;50.45;5.95
45888;BME280;31595;51.418;7.572;2023-02-14T12:31:45;101796.09;;;51.09;5.35
45888;BME280;31595;51.418;7.572;2023-02-14T12:34:14;101804.28;;;49.28;6.03
45888;BME280;31595;51.418;7.572;2023-02-14T12:37:04;101788.63;;;50.35;5.93
45888;BME280;31595;51.418;7.572;2023-02-14T12:39:37;101787.66;;;50.14;6.14
45888;BME280;31595;51.418;7.572;2023-02-14T12:42:24;101780.56;;;50.49;5.79
45888;BME280;31595;51.418;7.572;2023-02-14T12:45:02;101784.25;;;50.23;5.83
45888;BME280;31595;51.418;7.572;2023-02-14T12:47:37;101787.53;;;50.52;5.74
45888;BME280;31595;51.418;7.572;2023-02-14T12:50:27;101771.91;;;50.51;5.83
45888;BME280;31595;51.418;7.572;2023-02-14T12:52:58;101764.13;;;50.03;5.97
45888;BME280;31595;51.418;7.572;2023-02-14T12:55:35;101771.97;;;50.32;6.16
45888;BME280;31595;51.418;7.572;2023-02-14T12:58:14;101767.91;;;50.62;5.74
45888;BME280;31595;51.418;7.572;2023-02-14T13:00:53;101763.84;;;50.79;5.39
45888;BME280;31595;51.418;7.572;2023-02-14T13:03:54;101757.50;;;50.42;5.62
45888;BME280;31595;51.418;7.572;2023-02-14T13:06:30;101750.78;;;51.08;5.65
45888;BME280;31595;51.418;7.572;2023-02-14T13:09:12;101752.88;;;50.47;5.90
45888;BME280;31595;51.418;7.572;2023-02-14T13:11:53;101745.88;;;51.11;5.30
45888;BME280;31595;51.418;7.572;2023-02-14T13:17:18;101743.34;;;50.22;5.78
45888;BME280;31595;51.418;7.572;2023-02-14T13:19:55;101730.25;;;49.66;6.07
45888;BME280;31595;51.418;7.572;2023-02-14T13:22:27;101724.84;;;49.83;6.06
45888;BME280;31595;51.418;7.572;2023-02-14T13:24:58;101722.13;;;49.85;6.01
45888;BME280;31595;51.418;7.572;2023-02-14T13:27:32;101727.50;;;49.68;6.09
45888;BME280;31595;51.418;7.572;2023-02-14T13:30:05;101722.41;;;49.49;6.23